Jackson, Tennessee
Current Conditions -  °F | °C
As of 4:53 AM on Saturday 22 Nov 2014 (Local Time) from KMKL Reporting Station
Broken Clouds Broken Clouds  
Wind Chill: 53°   Ceiling: 10000
Heat Index: 53°   Visibility: 10mi
Dew Point: 40°   Wind: 7mph
Humidity: 61%   Direction: 180°S
Pressure: 30.29"   Gusts: NA
Location:  35.61°N, 88.82°W
Report Text: KMKL 221053Z 18006KT 10SM BKN100 12/04 A3029 RMK AO2 SLP255 T01170044
Loading
Personal Weather Stations






























Interactive Weather Map New forecast layout! Learn more

10-Day Weather Forecast

Advertisements
Track Severe Weather on mobile